sensor_id;sensor_type;location;lat;lon;timestamp;P1;durP1;ratioP1;P2;durP2;ratioP2
5795;SDS011;2924;51.458;7.046;2023-08-24T00:00:44;16.30;;;5.17;;
5795;SDS011;2924;51.458;7.046;2023-08-24T00:03:10;10.13;;;5.40;;
5795;SDS011;2924;51.458;7.046;2023-08-24T00:05:36;17.93;;;5.10;;
5795;SDS011;2924;51.458;7.046;2023-08-24T00:08:05;12.53;;;6.07;;
5795;SDS011;2924;51.458;7.046;2023-08-24T00:10:31;10.23;;;5.13;;
5795;SDS011;2924;51.458;7.046;2023-08-24T00:12:57;8.10;;;5.07;;
5795;SDS011;2924;51.458;7.046;2023-08-24T00:15:23;10.70;;;5.70;;
5795;SDS011;2924;51.458;7.046;2023-08-24T00:17:49;9.93;;;5.70;;
5795;SDS011;2924;51.458;7.046;2023-08-24T00:20:15;10.13;;;5.37;;
5795;SDS011;2924;51.458;7.046;2023-08-24T00:22:40;10.03;;;4.77;;
5795;SDS011;2924;51.458;7.046;2023-08-24T00:25:06;9.67;;;6.10;;
5795;SDS011;2924;51.458;7.046;2023-08-24T00:27:33;10.23;;;5.40;;
5795;SDS011;2924;51.458;7.046;2023-08-24T00:30:00;9.80;;;4.90;;
5795;SDS011;2924;51.458;7.046;2023-08-24T00:32:28;10.27;;;5.40;;
5795;SDS011;2924;51.458;7.046;2023-08-24T00:34:53;14.20;;;5.40;;
5795;SDS011;2924;51.458;7.046;2023-08-24T00:37:20;11.70;;;6.53;;
5795;SDS011;2924;51.458;7.046;2023-08-24T00:39:46;12.13;;;5.03;;
5795;SDS011;2924;51.458;7.046;2023-08-24T00:42:11;10.87;;;6.07;;
5795;SDS011;2924;51.458;7.046;2023-08-24T00:44:40;8.23;;;5.40;;
5795;SDS011;2924;51.458;7.046;2023-08-24T00:47:06;10.00;;;6.30;;
5795;SDS011;2924;51.458;7.046;2023-08-24T00:49:32;9.50;;;5.63;;
5795;SDS011;2924;51.458;7.046;2023-08-24T00:51:58;11.50;;;6.00;;
5795;SDS011;2924;51.458;7.046;2023-08-24T00:54:24;14.63;;;5.90;;
5795;SDS011;2924;51.458;7.046;2023-08-24T00:56:50;10.80;;;6.63;;
5795;SDS011;2924;51.458;7.046;2023-08-24T00:59:15;9.87;;;4.43;;
5795;SDS011;2924;51.458;7.046;2023-08-24T01:01:41;10.50;;;5.77;;
5795;SDS011;2924;51.458;7.046;2023-08-24T01:04:11;14.90;;;5.70;;
5795;SDS011;2924;51.458;7.046;2023-08-24T01:06:37;9.97;;;5.67;;
5795;SDS011;2924;51.458;7.046;2023-08-24T01:09:03;9.73;;;6.60;;
5795;SDS011;2924;51.458;7.046;2023-08-24T01:11:35;11.60;;;6.00;;
5795;SDS011;2924;51.458;7.046;2023-08-24T01:16:45;13.90;;;7.07;;
5795;SDS011;2924;51.458;7.046;2023-08-24T01:19:21;12.07;;;8.43;;
5795;SDS011;2924;51.458;7.046;2023-08-24T01:22:02;21.47;;;10.57;;
5795;SDS011;2924;51.458;7.046;2023-08-24T01:24:38;10.87;;;8.30;;
5795;SDS011;2924;51.458;7.046;2023-08-24T01:27:07;11.70;;;7.73;;
5795;SDS011;2924;51.458;7.046;2023-08-24T01:29:35;10.27;;;7.13;;
5795;SDS011;2924;51.458;7.046;2023-08-24T01:32:01;9.10;;;5.90;;
5795;SDS011;2924;51.458;7.046;2023-08-24T01:34:27;10.33;;;6.43;;
5795;SDS011;2924;51.458;7.046;2023-08-24T01:36:53;11.77;;;6.20;;
5795;SDS011;2924;51.458;7.046;2023-08-24T01:39:28;9.90;;;5.30;;
5795;SDS011;2924;51.458;7.046;2023-08-24T01:42:00;20.77;;;6.07;;
5795;SDS011;2924;51.458;7.046;2023-08-24T01:44:29;14.80;;;5.57;;
5795;SDS011;2924;51.458;7.046;2023-08-24T01:47:02;9.67;;;5.33;;
5795;SDS011;2924;51.458;7.046;2023-08-24T01:49:30;16.90;;;5.80;;
5795;SDS011;2924;51.458;7.046;2023-08-24T01:51:56;13.43;;;5.90;;
5795;SDS011;2924;51.458;7.046;2023-08-24T01:54:23;13.30;;;5.60;;
5795;SDS011;2924;51.458;7.046;2023-08-24T01:56:49;20.83;;;8.23;;
5795;SDS011;2924;51.458;7.046;2023-08-24T01:59:14;14.40;;;7.13;;
5795;SDS011;2924;51.458;7.046;2023-08-24T02:01:40;16.70;;;7.47;;
5795;SDS011;2924;51.458;7.046;2023-08-24T02:04:05;17.30;;;7.63;;
5795;SDS011;2924;51.458;7.046;2023-08-24T02:06:31;12.33;;;8.17;;
5795;SDS011;2924;51.458;7.046;2023-08-24T02:08:56;10.70;;;7.47;;
5795;SDS011;2924;51.458;7.046;2023-08-24T02:11:22;9.67;;;7.60;;
5795;SDS011;2924;51.458;7.046;2023-08-24T02:13:48;10.47;;;7.40;;
5795;SDS011;2924;51.458;7.046;2023-08-24T02:16:13;13.87;;;7.23;;
5795;SDS011;2924;51.458;7.046;2023-08-24T02:21:41;11.50;;;6.83;;
5795;SDS011;2924;51.458;7.046;2023-08-24T02:24:07;10.87;;;7.80;;
5795;SDS011;2924;51.458;7.046;2023-08-24T02:26:32;14.03;;;6.80;;
5795;SDS011;2924;51.458;7.046;2023-08-24T02:28:58;12.67;;;7.67;;
5795;SDS011;2924;51.458;7.046;2023-08-24T02:31:24;18.63;;;7.17;;
5795;SDS011;2924;51.458;7.046;2023-08-24T02:33:50;13.83;;;7.80;;
5795;SDS011;2924;51.458;7.046;2023-08-24T02:36:15;11.23;;;7.00;;
5795;SDS011;2924;51.458;7.046;2023-08-24T02:38:41;15.33;;;8.60;;
5795;SDS011;2924;51.458;7.046;2023-08-24T02:41:07;16.00;;;7.10;;
5795;SDS011;2924;51.458;7.046;2023-08-24T02:43:34;9.77;;;6.93;;
5795;SDS011;2924;51.458;7.046;2023-08-24T02:46:03;17.80;;;8.83;;
5795;SDS011;2924;51.458;7.046;2023-08-24T02:48:30;9.23;;;6.60;;
5795;SDS011;2924;51.458;7.046;2023-08-24T02:50:57;12.90;;;7.43;;
5795;SDS011;2924;51.458;7.046;2023-08-24T02:53:23;12.77;;;7.63;;
5795;SDS011;2924;51.458;7.046;2023-08-24T02:55:49;10.87;;;8.27;;
5795;SDS011;2924;51.458;7.046;2023-08-24T02:58:15;14.80;;;8.73;;
5795;SDS011;2924;51.458;7.046;2023-08-24T03:00:40;13.20;;;9.10;;
5795;SDS011;2924;51.458;7.046;2023-08-24T03:03:06;12.40;;;8.67;;
5795;SDS011;2924;51.458;7.046;2023-08-24T03:05:32;13.40;;;7.30;;
5795;SDS011;2924;51.458;7.046;2023-08-24T03:07:58;11.80;;;7.70;;
5795;SDS011;2924;51.458;7.046;2023-08-24T03:10:23;13.23;;;7.30;;
5795;SDS011;2924;51.458;7.046;2023-08-24T03:12:49;9.63;;;6.40;;
5795;SDS011;2924;51.458;7.046;2023-08-24T03:15:15;22.93;;;6.10;;
5795;SDS011;2924;51.458;7.046;2023-08-24T03:17:40;11.63;;;6.80;;
5795;SDS011;2924;51.458;7.046;2023-08-24T03:20:06;26.07;;;9.07;;
5795;SDS011;2924;51.458;7.046;2023-08-24T03:22:33;12.23;;;8.40;;
5795;SDS011;2924;51.458;7.046;2023-08-24T03:24:58;15.40;;;8.53;;
5795;SDS011;2924;51.458;7.046;2023-08-24T03:27:24;17.00;;;6.87;;
5795;SDS011;2924;51.458;7.046;2023-08-24T03:29:51;9.47;;;6.60;;
5795;SDS011;2924;51.458;7.046;2023-08-24T03:32:18;17.33;;;6.87;;
5795;SDS011;2924;51.458;7.046;2023-08-24T03:34:43;12.80;;;5.80;;
5795;SDS011;2924;51.458;7.046;2023-08-24T03:37:09;18.03;;;6.63;;
5795;SDS011;2924;51.458;7.046;2023-08-24T03:39:36;11.13;;;6.37;;
5795;SDS011;2924;51.458;7.046;2023-08-24T03:42:03;10.63;;;5.27;;
5795;SDS011;2924;51.458;7.046;2023-08-24T03:44:29;16.53;;;5.93;;
5795;SDS011;2924;51.458;7.046;2023-08-24T03:46:54;15.50;;;5.80;;
5795;SDS011;2924;51.458;7.046;2023-08-24T03:49:20;13.90;;;5.23;;
5795;SDS011;2924;51.458;7.046;2023-08-24T03:51:46;8.00;;;6.20;;
5795;SDS011;2924;51.458;7.046;2023-08-24T03:54:11;8.47;;;5.50;;
5795;SDS011;2924;51.458;7.046;2023-08-24T03:56:37;7.10;;;5.37;;
5795;SDS011;2924;51.458;7.046;2023-08-24T03:59:02;6.33;;;4.57;;
5795;SDS011;2924;51.458;7.046;2023-08-24T04:01:28;6.53;;;4.27;;
5795;SDS011;2924;51.458;7.046;2023-08-24T04:03:54;4.27;;;3.90;;
5795;SDS011;2924;51.458;7.046;2023-08-24T04:06:19;5.07;;;4.53;;
5795;SDS011;2924;51.458;7.046;2023-08-24T04:08:45;8.60;;;6.37;;
5795;SDS011;2924;51.458;7.046;2023-08-24T04:11:10;7.73;;;5.10;;
5795;SDS011;2924;51.458;7.046;2023-08-24T04:13:36;12.03;;;5.63;;
5795;SDS011;2924;51.458;7.046;2023-08-24T04:16:01;5.83;;;5.23;;
5795;SDS011;2924;51.458;7.046;2023-08-24T04:18:28;8.70;;;5.27;;
5795;SDS011;2924;51.458;7.046;2023-08-24T04:20:54;8.23;;;5.90;;
5795;SDS011;2924;51.458;7.046;2023-08-24T04:23:23;12.00;;;5.60;;
5795;SDS011;2924;51.458;7.046;2023-08-24T04:25:53;8.53;;;5.53;;
5795;SDS011;2924;51.458;7.046;2023-08-24T04:28:19;12.30;;;5.30;;
5795;SDS011;2924;51.458;7.046;2023-08-24T04:30:49;5.70;;;5.10;;
5795;SDS011;2924;51.458;7.046;2023-08-24T04:33:16;13.60;;;6.33;;
5795;SDS011;2924;51.458;7.046;2023-08-24T04:35:41;6.30;;;5.53;;
5795;SDS011;2924;51.458;7.046;2023-08-24T04:38:07;19.13;;;6.93;;
5795;SDS011;2924;51.458;7.046;2023-08-24T04:40:48;13.03;;;7.50;;
5795;SDS011;2924;51.458;7.046;2023-08-24T04:43:18;13.73;;;8.63;;
5795;SDS011;2924;51.458;7.046;2023-08-24T04:45:46;15.33;;;8.00;;
5795;SDS011;2924;51.458;7.046;2023-08-24T04:48:17;13.37;;;8.97;;
5795;SDS011;2924;51.458;7.046;2023-08-24T04:50:43;12.83;;;7.90;;
5795;SDS011;2924;51.458;7.046;2023-08-24T04:53:10;16.10;;;6.97;;
5795;SDS011;2924;51.458;7.046;2023-08-24T04:55:38;11.73;;;7.60;;
5795;SDS011;2924;51.458;7.046;2023-08-24T04:58:03;13.83;;;7.43;;
5795;SDS011;2924;51.458;7.046;2023-08-24T05:00:29;11.20;;;8.00;;
5795;SDS011;2924;51.458;7.046;2023-08-24T05:02:54;17.83;;;8.33;;
5795;SDS011;2924;51.458;7.046;2023-08-24T05:05:20;14.13;;;9.10;;
5795;SDS011;2924;51.458;7.046;2023-08-24T05:07:45;14.00;;;9.73;;
5795;SDS011;2924;51.458;7.046;2023-08-24T05:10:11;11.27;;;8.33;;
5795;SDS011;2924;51.458;7.046;2023-08-24T05:12:36;10.73;;;8.97;;
5795;SDS011;2924;51.458;7.046;2023-08-24T05:15:02;13.23;;;8.83;;
5795;SDS011;2924;51.458;7.046;2023-08-24T05:17:29;10.47;;;7.60;;
5795;SDS011;2924;51.458;7.046;2023-08-24T05:19:56;11.70;;;7.50;;
5795;SDS011;2924;51.458;7.046;2023-08-24T05:22:23;17.70;;;7.10;;
5795;SDS011;2924;51.458;7.046;2023-08-24T05:24:48;10.43;;;6.10;;
5795;SDS011;2924;51.458;7.046;2023-08-24T05:27:14;14.30;;;6.27;;
5795;SDS011;2924;51.458;7.046;2023-08-24T05:29:40;8.20;;;5.93;;
5795;SDS011;2924;51.458;7.046;2023-08-24T05:32:06;13.73;;;6.10;;
5795;SDS011;2924;51.458;7.046;2023-08-24T05:34:32;13.53;;;5.70;;
5795;SDS011;2924;51.458;7.046;2023-08-24T05:36:57;9.50;;;5.30;;
5795;SDS011;2924;51.458;7.046;2023-08-24T05:39:23;8.90;;;5.00;;
5795;SDS011;2924;51.458;7.046;2023-08-24T05:41:52;9.23;;;5.60;;
5795;SDS011;2924;51.458;7.046;2023-08-24T05:44:18;16.70;;;5.73;;
5795;SDS011;2924;51.458;7.046;2023-08-24T05:46:45;6.63;;;5.40;;
5795;SDS011;2924;51.458;7.046;2023-08-24T05:49:11;17.03;;;6.10;;
5795;SDS011;2924;51.458;7.046;2023-08-24T05:51:37;6.60;;;5.70;;
5795;SDS011;2924;51.458;7.046;2023-08-24T05:54:02;9.57;;;4.90;;
5795;SDS011;2924;51.458;7.046;2023-08-24T05:56:28;12.77;;;5.10;;
5795;SDS011;2924;51.458;7.046;2023-08-24T05:58:54;11.67;;;5.70;;
5795;SDS011;2924;51.458;7.046;2023-08-24T06:01:22;7.73;;;5.67;;
5795;SDS011;2924;51.458;7.046;2023-08-24T06:03:49;10.53;;;5.87;;
5795;SDS011;2924;51.458;7.046;2023-08-24T06:06:15;14.53;;;5.00;;
5795;SDS011;2924;51.458;7.046;2023-08-24T06:08:40;10.40;;;5.70;;
5795;SDS011;2924;51.458;7.046;2023-08-24T06:11:06;9.00;;;5.60;;
5795;SDS011;2924;51.458;7.046;2023-08-24T06:13:32;10.27;;;6.50;;
5795;SDS011;2924;51.458;7.046;2023-08-24T06:15:58;12.23;;;6.30;;
5795;SDS011;2924;51.458;7.046;2023-08-24T06:18:24;11.30;;;5.47;;
5795;SDS011;2924;51.458;7.046;2023-08-24T06:20:49;14.70;;;5.30;;
5795;SDS011;2924;51.458;7.046;2023-08-24T06:23:16;11.37;;;5.80;;
5795;SDS011;2924;51.458;7.046;2023-08-24T06:25:42;11.57;;;6.10;;
5795;SDS011;2924;51.458;7.046;2023-08-24T06:28:08;7.30;;;5.27;;
5795;SDS011;2924;51.458;7.046;2023-08-24T06:30:37;8.50;;;5.57;;
5795;SDS011;2924;51.458;7.046;2023-08-24T06:33:04;10.17;;;4.90;;
5795;SDS011;2924;51.458;7.046;2023-08-24T06:35:30;13.27;;;6.27;;
5795;SDS011;2924;51.458;7.046;2023-08-24T06:37:56;13.17;;;5.70;;
5795;SDS011;2924;51.458;7.046;2023-08-24T06:40:22;8.97;;;5.50;;
5795;SDS011;2924;51.458;7.046;2023-08-24T06:42:48;8.13;;;5.20;;
5795;SDS011;2924;51.458;7.046;2023-08-24T06:45:13;9.70;;;4.93;;
5795;SDS011;2924;51.458;7.046;2023-08-24T06:47:39;12.33;;;5.27;;
5795;SDS011;2924;51.458;7.046;2023-08-24T06:50:05;7.93;;;4.70;;
5795;SDS011;2924;51.458;7.046;2023-08-24T06:52:31;8.40;;;5.53;;
5795;SDS011;2924;51.458;7.046;2023-08-24T06:54:57;10.60;;;5.90;;
5795;SDS011;2924;51.458;7.046;2023-08-24T06:57:24;6.87;;;4.60;;
5795;SDS011;2924;51.458;7.046;2023-08-24T06:59:49;7.37;;;5.70;;
5795;SDS011;2924;51.458;7.046;2023-08-24T07:02:15;5.17;;;4.50;;
5795;SDS011;2924;51.458;7.046;2023-08-24T07:04:42;9.60;;;4.47;;
5795;SDS011;2924;51.458;7.046;2023-08-24T07:07:08;6.93;;;4.37;;
5795;SDS011;2924;51.458;7.046;2023-08-24T07:09:34;7.60;;;4.50;;
5795;SDS011;2924;51.458;7.046;2023-08-24T07:12:00;7.30;;;3.93;;
5795;SDS011;2924;51.458;7.046;2023-08-24T07:14:32;13.73;;;5.47;;
5795;SDS011;2924;51.458;7.046;2023-08-24T07:16:57;12.30;;;5.30;;
5795;SDS011;2924;51.458;7.046;2023-08-24T07:19:23;9.10;;;5.53;;
5795;SDS011;2924;51.458;7.046;2023-08-24T07:21:49;6.83;;;4.93;;
5795;SDS011;2924;51.458;7.046;2023-08-24T07:24:14;11.67;;;3.90;;
5795;SDS011;2924;51.458;7.046;2023-08-24T07:26:40;9.73;;;5.13;;
5795;SDS011;2924;51.458;7.046;2023-08-24T07:29:07;10.43;;;5.00;;
5795;SDS011;2924;51.458;7.046;2023-08-24T07:31:33;13.13;;;6.03;;
5795;SDS011;2924;51.458;7.046;2023-08-24T07:33:58;9.60;;;5.20;;
5795;SDS011;2924;51.458;7.046;2023-08-24T07:36:24;7.10;;;4.03;;
5795;SDS011;2924;51.458;7.046;2023-08-24T07:38:49;8.25;;;4.25;;
5795;SDS011;2924;51.458;7.046;2023-08-24T07:41:15;6.75;;;4.65;;
5795;SDS011;2924;51.458;7.046;2023-08-24T07:43:43;16.98;;;5.63;;
5795;SDS011;2924;51.458;7.046;2023-08-24T07:46:08;9.95;;;5.53;;
5795;SDS011;2924;51.458;7.046;2023-08-24T07:48:34;8.32;;;4.53;;
5795;SDS011;2924;51.458;7.046;2023-08-24T07:51:00;16.77;;;4.70;;
5795;SDS011;2924;51.458;7.046;2023-08-24T07:53:26;6.53;;;4.63;;
5795;SDS011;2924;51.458;7.046;2023-08-24T07:55:53;6.30;;;4.93;;
5795;SDS011;2924;51.458;7.046;2023-08-24T07:58:22;7.03;;;4.78;;
5795;SDS011;2924;51.458;7.046;2023-08-24T08:00:51;8.32;;;4.03;;
5795;SDS011;2924;51.458;7.046;2023-08-24T08:03:17;15.55;;;5.15;;
5795;SDS011;2924;51.458;7.046;2023-08-24T08:05:43;11.77;;;4.43;;
5795;SDS011;2924;51.458;7.046;2023-08-24T08:08:09;16.13;;;4.40;;
5795;SDS011;2924;51.458;7.046;2023-08-24T08:10:35;8.88;;;4.25;;
5795;SDS011;2924;51.458;7.046;2023-08-24T08:13:00;5.55;;;3.67;;
5795;SDS011;2924;51.458;7.046;2023-08-24T08:15:26;6.50;;;3.75;;
5795;SDS011;2924;51.458;7.046;2023-08-24T08:17:51;12.05;;;4.68;;
5795;SDS011;2924;51.458;7.046;2023-08-24T08:20:17;4.10;;;2.80;;
5795;SDS011;2924;51.458;7.046;2023-08-24T08:22:43;9.13;;;3.65;;
5795;SDS011;2924;51.458;7.046;2023-08-24T08:25:08;7.22;;;3.97;;
5795;SDS011;2924;51.458;7.046;2023-08-24T08:27:34;10.50;;;4.47;;
5795;SDS011;2924;51.458;7.046;2023-08-24T08:30:00;5.93;;;3.42;;
5795;SDS011;2924;51.458;7.046;2023-08-24T08:32:25;7.43;;;3.78;;
5795;SDS011;2924;51.458;7.046;2023-08-24T08:34:53;5.97;;;2.75;;
5795;SDS011;2924;51.458;7.046;2023-08-24T08:37:20;11.90;;;3.33;;
5795;SDS011;2924;51.458;7.046;2023-08-24T08:39:46;3.33;;;3.03;;
5795;SDS011;2924;51.458;7.046;2023-08-24T08:42:13;4.85;;;3.13;;
5795;SDS011;2924;51.458;7.046;2023-08-24T08:44:39;6.70;;;3.40;;
5795;SDS011;2924;51.458;7.046;2023-08-24T08:47:07;3.45;;;2.83;;
5795;SDS011;2924;51.458;7.046;2023-08-24T08:49:33;7.35;;;3.28;;
5795;SDS011;2924;51.458;7.046;2023-08-24T08:52:00;7.93;;;3.35;;
5795;SDS011;2924;51.458;7.046;2023-08-24T08:54:26;9.30;;;3.63;;
5795;SDS011;2924;51.458;7.046;2023-08-24T08:56:52;5.95;;;3.25;;
5795;SDS011;2924;51.458;7.046;2023-08-24T08:59:18;4.07;;;2.65;;
5795;SDS011;2924;51.458;7.046;2023-08-24T09:01:44;7.75;;;3.00;;
5795;SDS011;2924;51.458;7.046;2023-08-24T09:04:12;4.88;;;2.78;;
5795;SDS011;2924;51.458;7.046;2023-08-24T09:06:38;8.82;;;3.42;;
5795;SDS011;2924;51.458;7.046;2023-08-24T09:09:04;3.30;;;2.53;;
5795;SDS011;2924;51.458;7.046;2023-08-24T09:11:31;2.80;;;2.60;;
5795;SDS011;2924;51.458;7.046;2023-08-24T09:13:58;5.95;;;2.40;;
5795;SDS011;2924;51.458;7.046;2023-08-24T09:16:23;5.57;;;3.17;;
5795;SDS011;2924;51.458;7.046;2023-08-24T09:18:54;2.88;;;2.50;;
5795;SDS011;2924;51.458;7.046;2023-08-24T09:21:20;4.82;;;2.58;;
5795;SDS011;2924;51.458;7.046;2023-08-24T09:23:51;5.20;;;3.00;;
5795;SDS011;2924;51.458;7.046;2023-08-24T09:26:32;3.00;;;2.47;;
5795;SDS011;2924;51.458;7.046;2023-08-24T09:28:59;3.20;;;2.80;;
5795;SDS011;2924;51.458;7.046;2023-08-24T09:31:35;5.03;;;3.05;;
5795;SDS011;2924;51.458;7.046;2023-08-24T09:34:04;6.90;;;2.92;;
5795;SDS011;2924;51.458;7.046;2023-08-24T09:36:34;2.70;;;2.40;;
5795;SDS011;2924;51.458;7.046;2023-08-24T09:39:01;4.20;;;2.97;;
5795;SDS011;2924;51.458;7.046;2023-08-24T09:41:41;3.15;;;2.55;;
5795;SDS011;2924;51.458;7.046;2023-08-24T09:44:12;4.45;;;2.45;;
5795;SDS011;2924;51.458;7.046;2023-08-24T09:46:38;3.90;;;2.65;;
5795;SDS011;2924;51.458;7.046;2023-08-24T09:49:05;4.90;;;2.42;;
5795;SDS011;2924;51.458;7.046;2023-08-24T09:51:32;3.42;;;2.05;;
5795;SDS011;2924;51.458;7.046;2023-08-24T09:53:59;2.70;;;2.50;;
5795;SDS011;2924;51.458;7.046;2023-08-24T09:56:31;6.47;;;2.88;;
5795;SDS011;2924;51.458;7.046;2023-08-24T09:59:00;5.47;;;2.00;;
5795;SDS011;2924;51.458;7.046;2023-08-24T10:01:31;2.72;;;2.40;;
5795;SDS011;2924;51.458;7.046;2023-08-24T10:03:56;7.65;;;2.47;;
5795;SDS011;2924;51.458;7.046;2023-08-24T10:06:24;1.92;;;1.83;;
5795;SDS011;2924;51.458;7.046;2023-08-24T10:08:58;3.20;;;2.42;;
5795;SDS011;2924;51.458;7.046;2023-08-24T10:11:28;2.65;;;2.17;;
5795;SDS011;2924;51.458;7.046;2023-08-24T10:14:04;11.40;;;2.42;;
5795;SDS011;2924;51.458;7.046;2023-08-24T10:16:35;4.55;;;2.38;;
5795;SDS011;2924;51.458;7.046;2023-08-24T10:19:02;3.13;;;2.35;;
5795;SDS011;2924;51.458;7.046;2023-08-24T10:21:29;4.50;;;2.78;;
5795;SDS011;2924;51.458;7.046;2023-08-24T10:23:56;6.47;;;2.55;;
5795;SDS011;2924;51.458;7.046;2023-08-24T10:26:22;2.42;;;2.17;;
5795;SDS011;2924;51.458;7.046;2023-08-24T10:28:52;5.15;;;2.28;;
5795;SDS011;2924;51.458;7.046;2023-08-24T10:31:18;4.88;;;1.88;;
5795;SDS011;2924;51.458;7.046;2023-08-24T10:33:45;8.07;;;2.53;;
5795;SDS011;2924;51.458;7.046;2023-08-24T10:36:15;2.33;;;2.00;;
5795;SDS011;2924;51.458;7.046;2023-08-24T10:38:43;7.15;;;2.33;;
5795;SDS011;2924;51.458;7.046;2023-08-24T10:41:09;3.65;;;2.50;;
5795;SDS011;2924;51.458;7.046;2023-08-24T10:43:38;5.35;;;2.90;;
5795;SDS011;2924;51.458;7.046;2023-08-24T10:46:11;2.88;;;2.47;;
5795;SDS011;2924;51.458;7.046;2023-08-24T10:56:24;3.75;;;2.45;;
5795;SDS011;2924;51.458;7.046;2023-08-24T10:59:12;4.13;;;2.40;;
5795;SDS011;2924;51.458;7.046;2023-08-24T11:01:42;8.10;;;2.78;;
5795;SDS011;2924;51.458;7.046;2023-08-24T11:04:29;5.30;;;2.28;;
5795;SDS011;2924;51.458;7.046;2023-08-24T11:06:58;2.30;;;2.10;;
5795;SDS011;2924;51.458;7.046;2023-08-24T11:09:24;5.68;;;2.72;;
5795;SDS011;2924;51.458;7.046;2023-08-24T11:11:57;3.47;;;2.45;;
5795;SDS011;2924;51.458;7.046;2023-08-24T11:14:28;2.47;;;2.25;;
5795;SDS011;2924;51.458;7.046;2023-08-24T11:17:17;2.53;;;2.17;;
5795;SDS011;2924;51.458;7.046;2023-08-24T11:19:47;7.05;;;2.58;;
5795;SDS011;2924;51.458;7.046;2023-08-24T11:22:14;2.45;;;2.25;;
5795;SDS011;2924;51.458;7.046;2023-08-24T11:24:42;2.10;;;1.98;;
5795;SDS011;2924;51.458;7.046;2023-08-24T11:27:08;2.42;;;2.22;;
5795;SDS011;2924;51.458;7.046;2023-08-24T11:29:34;9.35;;;2.80;;
5795;SDS011;2924;51.458;7.046;2023-08-24T11:31:59;9.35;;;3.20;;
5795;SDS011;2924;51.458;7.046;2023-08-24T11:34:25;5.72;;;3.00;;
5795;SDS011;2924;51.458;7.046;2023-08-24T11:36:51;2.47;;;2.28;;
5795;SDS011;2924;51.458;7.046;2023-08-24T11:39:20;6.68;;;2.30;;
5795;SDS011;2924;51.458;7.046;2023-08-24T11:42:04;4.78;;;2.20;;
5795;SDS011;2924;51.458;7.046;2023-08-24T11:45:04;4.03;;;2.53;;
5795;SDS011;2924;51.458;7.046;2023-08-24T11:47:22;3.88;;;2.78;;
5795;SDS011;2924;51.458;7.046;2023-08-24T11:49:48;3.17;;;2.45;;
5795;SDS011;2924;51.458;7.046;2023-08-24T11:52:14;3.15;;;2.08;;
5795;SDS011;2924;51.458;7.046;2023-08-24T11:54:41;4.75;;;2.70;;
5795;SDS011;2924;51.458;7.046;2023-08-24T11:57:07;5.10;;;2.40;;
5795;SDS011;2924;51.458;7.046;2023-08-24T11:59:34;12.57;;;3.50;;
5795;SDS011;2924;51.458;7.046;2023-08-24T12:02:00;2.40;;;1.80;;
5795;SDS011;2924;51.458;7.046;2023-08-24T12:04:26;5.03;;;2.67;;
5795;SDS011;2924;51.458;7.046;2023-08-24T12:06:52;8.15;;;2.47;;
5795;SDS011;2924;51.458;7.046;2023-08-24T12:09:18;9.05;;;2.65;;
5795;SDS011;2924;51.458;7.046;2023-08-24T12:11:43;6.35;;;2.65;;
5795;SDS011;2924;51.458;7.046;2023-08-24T12:14:16;6.50;;;2.58;;
5795;SDS011;2924;51.458;7.046;2023-08-24T12:16:42;7.20;;;2.70;;
5795;SDS011;2924;51.458;7.046;2023-08-24T12:19:07;4.53;;;2.35;;
5795;SDS011;2924;51.458;7.046;2023-08-24T12:21:41;9.73;;;2.48;;
5795;SDS011;2924;51.458;7.046;2023-08-24T12:24:13;3.17;;;2.60;;
5795;SDS011;2924;51.458;7.046;2023-08-24T12:26:39;7.10;;;3.03;;
5795;SDS011;2924;51.458;7.046;2023-08-24T12:29:05;8.50;;;2.85;;
5795;SDS011;2924;51.458;7.046;2023-08-24T12:31:35;5.03;;;2.78;;
5795;SDS011;2924;51.458;7.046;2023-08-24T12:34:02;5.50;;;2.88;;
5795;SDS011;2924;51.458;7.046;2023-08-24T12:36:29;5.97;;;2.63;;
5795;SDS011;2924;51.458;7.046;2023-08-24T12:38:58;5.47;;;2.60;;
5795;SDS011;2924;51.458;7.046;2023-08-24T12:41:24;4.05;;;2.40;;
5795;SDS011;2924;51.458;7.046;2023-08-24T12:43:50;6.13;;;2.70;;
5795;SDS011;2924;51.458;7.046;2023-08-24T12:46:17;5.80;;;2.53;;
5795;SDS011;2924;51.458;7.046;2023-08-24T12:48:42;3.47;;;2.90;;
5795;SDS011;2924;51.458;7.046;2023-08-24T12:51:08;5.57;;;3.37;;
5795;SDS011;2924;51.458;7.046;2023-08-24T12:53:34;5.63;;;3.03;;
5795;SDS011;2924;51.458;7.046;2023-08-24T12:55:59;7.63;;;3.03;;
5795;SDS011;2924;51.458;7.046;2023-08-24T12:58:25;9.50;;;3.50;;
5795;SDS011;2924;51.458;7.046;2023-08-24T13:00:50;7.13;;;3.07;;
5795;SDS011;2924;51.458;7.046;2023-08-24T13:03:16;10.53;;;3.50;;
5795;SDS011;2924;51.458;7.046;2023-08-24T13:05:41;8.23;;;3.47;;
5795;SDS011;2924;51.458;7.046;2023-08-24T13:08:07;4.70;;;2.90;;
5795;SDS011;2924;51.458;7.046;2023-08-24T13:10:32;4.57;;;2.87;;
5795;SDS011;2924;51.458;7.046;2023-08-24T13:12:58;6.57;;;2.83;;
5795;SDS011;2924;51.458;7.046;2023-08-24T13:15:24;4.23;;;2.73;;
5795;SDS011;2924;51.458;7.046;2023-08-24T13:17:49;8.93;;;3.07;;
5795;SDS011;2924;51.458;7.046;2023-08-24T13:20:15;5.63;;;2.73;;
5795;SDS011;2924;51.458;7.046;2023-08-24T13:22:41;9.80;;;3.20;;
5795;SDS011;2924;51.458;7.046;2023-08-24T13:25:07;9.40;;;3.53;;
5795;SDS011;2924;51.458;7.046;2023-08-24T13:27:33;3.53;;;2.50;;
5795;SDS011;2924;51.458;7.046;2023-08-24T13:30:01;5.10;;;2.97;;
5795;SDS011;2924;51.458;7.046;2023-08-24T13:32:27;14.00;;;2.80;;
5795;SDS011;2924;51.458;7.046;2023-08-24T13:34:54;6.13;;;2.80;;
5795;SDS011;2924;51.458;7.046;2023-08-24T13:37:21;9.27;;;3.08;;
5795;SDS011;2924;51.458;7.046;2023-08-24T13:39:48;12.57;;;3.70;;
5795;SDS011;2924;51.458;7.046;2023-08-24T13:42:13;10.68;;;3.40;;
5795;SDS011;2924;51.458;7.046;2023-08-24T13:44:39;18.67;;;5.53;;
5795;SDS011;2924;51.458;7.046;2023-08-24T13:47:05;5.93;;;2.78;;
5795;SDS011;2924;51.458;7.046;2023-08-24T13:49:31;6.55;;;2.83;;
5795;SDS011;2924;51.458;7.046;2023-08-24T13:51:56;9.30;;;3.28;;
5795;SDS011;2924;51.458;7.046;2023-08-24T13:54:22;4.97;;;3.05;;
5795;SDS011;2924;51.458;7.046;2023-08-24T13:56:48;14.25;;;2.88;;
5795;SDS011;2924;51.458;7.046;2023-08-24T13:59:15;5.97;;;2.35;;
5795;SDS011;2924;51.458;7.046;2023-08-24T14:01:41;3.80;;;2.80;;
5795;SDS011;2924;51.458;7.046;2023-08-24T14:04:07;6.95;;;3.58;;
5795;SDS011;2924;51.458;7.046;2023-08-24T14:06:33;6.05;;;2.55;;
5795;SDS011;2924;51.458;7.046;2023-08-24T14:09:03;10.60;;;3.40;;
5795;SDS011;2924;51.458;7.046;2023-08-24T14:11:29;6.75;;;3.20;;
5795;SDS011;2924;51.458;7.046;2023-08-24T14:13:55;12.07;;;3.58;;
5795;SDS011;2924;51.458;7.046;2023-08-24T14:16:20;6.63;;;3.67;;
5795;SDS011;2924;51.458;7.046;2023-08-24T14:18:46;9.65;;;3.70;;
5795;SDS011;2924;51.458;7.046;2023-08-24T14:21:13;14.68;;;3.60;;
5795;SDS011;2924;51.458;7.046;2023-08-24T14:23:39;7.60;;;3.97;;
5795;SDS011;2924;51.458;7.046;2023-08-24T14:26:05;5.70;;;3.83;;
5795;SDS011;2924;51.458;7.046;2023-08-24T14:31:19;6.50;;;3.40;;
5795;SDS011;2924;51.458;7.046;2023-08-24T14:36:14;15.20;;;3.60;;
5795;SDS011;2924;51.458;7.046;2023-08-24T14:38:39;6.60;;;3.70;;
5795;SDS011;2924;51.458;7.046;2023-08-24T14:41:06;7.05;;;3.70;;
5795;SDS011;2924;51.458;7.046;2023-08-24T14:43:33;7.35;;;3.40;;
5795;SDS011;2924;51.458;7.046;2023-08-24T14:45:59;5.77;;;4.30;;
5795;SDS011;2924;51.458;7.046;2023-08-24T14:48:24;5.83;;;3.47;;
5795;SDS011;2924;51.458;7.046;2023-08-24T14:50:50;9.00;;;4.20;;
5795;SDS011;2924;51.458;7.046;2023-08-24T14:53:16;11.27;;;4.60;;
5795;SDS011;2924;51.458;7.046;2023-08-24T14:55:42;12.03;;;4.80;;
5795;SDS011;2924;51.458;7.046;2023-08-24T14:58:07;6.70;;;4.27;;
5795;SDS011;2924;51.458;7.046;2023-08-24T15:00:33;10.07;;;4.60;;
5795;SDS011;2924;51.458;7.046;2023-08-24T15:02:59;5.63;;;4.13;;
5795;SDS011;2924;51.458;7.046;2023-08-24T15:05:24;9.50;;;4.77;;
5795;SDS011;2924;51.458;7.046;2023-08-24T15:07:50;8.47;;;4.67;;
5795;SDS011;2924;51.458;7.046;2023-08-24T15:10:16;14.20;;;5.40;;
5795;SDS011;2924;51.458;7.046;2023-08-24T15:12:42;5.00;;;3.77;;
5795;SDS011;2924;51.458;7.046;2023-08-24T15:15:10;11.60;;;4.67;;
5795;SDS011;2924;51.458;7.046;2023-08-24T15:17:35;10.80;;;4.80;;
5795;SDS011;2924;51.458;7.046;2023-08-24T15:20:04;8.90;;;3.80;;
5795;SDS011;2924;51.458;7.046;2023-08-24T15:22:30;8.73;;;3.73;;
5795;SDS011;2924;51.458;7.046;2023-08-24T15:24:57;14.07;;;4.73;;
5795;SDS011;2924;51.458;7.046;2023-08-24T15:27:23;14.67;;;4.30;;